createdAt,value
2022-10-11T00:00:06.068Z,5.50
2022-10-11T00:05:29.150Z,5.50
2022-10-11T00:10:34.922Z,6.60
2022-10-11T00:15:39.891Z,7.10
2022-10-11T00:20:42.776Z,6.20
2022-10-11T00:25:45.574Z,6.70
2022-10-11T00:30:49.098Z,6.90
2022-10-11T00:35:52.066Z,6.00
2022-10-11T00:40:55.112Z,6.50
2022-10-11T00:45:58.017Z,5.50
2022-10-11T00:51:07.082Z,5.20
2022-10-11T00:56:17.445Z,7.40
2022-10-11T01:01:20.620Z,7.30
2022-10-11T01:06:23.659Z,5.90
2022-10-11T01:11:29.227Z,7.30
2022-10-11T01:17:07.054Z,6.30
2022-10-11T01:22:35.566Z,6.60
2022-10-11T01:27:58.835Z,7.70
2022-10-11T01:33:21.460Z,7.20
2022-10-11T01:38:35.163Z,7.10
2022-10-11T01:43:40.012Z,7.30
2022-10-11T01:48:55.205Z,7.70
2022-10-11T01:55:08.260Z,7.80
2022-10-11T02:00:23.142Z,7.80
2022-10-11T02:05:35.724Z,8.00
2022-10-11T02:10:50.144Z,7.40
2022-10-11T02:15:56.322Z,9.40
2022-10-11T02:21:02.300Z,8.60
2022-10-11T02:26:07.415Z,8.10
2022-10-11T02:31:12.636Z,8.40
2022-10-11T02:36:25.358Z,8.10
2022-10-11T02:41:33.150Z,8.90
2022-10-11T02:46:37.609Z,9.40
2022-10-11T02:51:40.923Z,9.80
2022-10-11T02:56:43.824Z,8.60
2022-10-11T03:01:46.795Z,9.20
2022-10-11T03:06:49.632Z,9.50
2022-10-11T03:11:52.743Z,8.80
2022-10-11T03:16:55.776Z,10.20
2022-10-11T03:22:01.115Z,10.20
2022-10-11T03:27:04.013Z,9.50
2022-10-11T03:32:06.824Z,10.40
2022-10-11T03:37:10.336Z,9.30
2022-10-11T03:42:14.040Z,7.80
2022-10-11T03:47:17.370Z,8.30
2022-10-11T03:52:20.480Z,8.70
2022-10-11T03:57:24.001Z,9.30
2022-10-11T04:02:27.108Z,7.60
2022-10-11T04:07:29.908Z,11.40
2022-10-11T04:12:33.190Z,10.60
2022-10-11T04:17:35.921Z,9.90
2022-10-11T04:22:38.926Z,10.10
2022-10-11T04:27:42.140Z,13.20
2022-10-11T04:32:45.357Z,12.70
2022-10-11T04:37:48.258Z,15.00
2022-10-11T04:42:53.413Z,16.00
2022-10-11T04:47:56.318Z,14.10
2022-10-11T04:52:59.221Z,16.10
2022-10-11T04:58:02.491Z,15.20
2022-10-11T05:03:05.335Z,13.20
2022-10-11T05:08:08.445Z,13.90
2022-10-11T05:13:11.246Z,13.40
2022-10-11T05:18:14.047Z,14.00
2022-10-11T05:23:16.951Z,12.00
2022-10-11T05:28:19.802Z,12.40
2022-10-11T05:33:23.580Z,12.30
2022-10-11T05:38:26.940Z,12.30
2022-10-11T05:43:30.420Z,12.80
2022-10-11T05:48:33.812Z,12.00
2022-10-11T05:53:38.170Z,12.50
2022-10-11T05:58:41.067Z,12.70
2022-10-11T06:03:44.177Z,14.20
2022-10-11T06:08:47.909Z,16.50
2022-10-11T06:13:54.623Z,15.50
2022-10-11T06:18:58.202Z,14.70
2022-10-11T06:24:02.145Z,13.60
2022-10-11T06:29:05.668Z,12.60
2022-10-11T06:34:08.977Z,12.40
2022-10-11T06:39:12.196Z,9.80
2022-10-11T06:44:15.351Z,9.80
2022-10-11T06:49:23.061Z,9.20
2022-10-11T06:54:26.968Z,9.70
2022-10-11T06:59:29.746Z,8.00
2022-10-11T07:04:34.187Z,8.00
2022-10-11T07:09:37.042Z,6.50
2022-10-11T07:14:40.011Z,6.50
2022-10-11T07:19:42.798Z,5.40
2022-10-11T07:24:45.802Z,6.30
2022-10-11T07:29:48.608Z,3.90
2022-10-11T07:34:51.406Z,4.20
2022-10-11T07:39:54.719Z,3.60
2022-10-11T07:44:57.523Z,3.40
2022-10-11T07:50:00.426Z,3.60
2022-10-11T07:55:03.338Z,3.10
2022-10-11T08:00:07.175Z,3.00
2022-10-11T08:05:09.933Z,2.80
2022-10-11T08:10:12.770Z,2.30
2022-10-11T08:15:16.581Z,2.50
2022-10-11T08:20:19.491Z,2.30
2022-10-11T08:25:22.545Z,2.40
2022-10-11T08:30:25.404Z,2.60
2022-10-11T08:35:28.716Z,2.30
2022-10-11T08:40:35.314Z,2.90
2022-10-11T08:45:53.472Z,2.10
2022-10-11T08:50:57.680Z,2.20
2022-10-11T08:56:01.472Z,2.30
2022-10-11T09:01:07.152Z,2.10
2022-10-11T09:06:25.464Z,3.00
2022-10-11T09:11:47.619Z,2.20
2022-10-11T09:16:55.846Z,2.20
2022-10-11T09:22:10.937Z,2.20
2022-10-11T09:27:25.894Z,2.20
2022-10-11T09:32:42.720Z,2.70
2022-10-11T09:38:06.248Z,5.50
2022-10-11T09:43:09.629Z,2.20
2022-10-11T09:48:30.792Z,2.00
2022-10-11T09:54:05.439Z,2.40
2022-10-11T09:59:31.386Z,2.70
2022-10-11T10:04:34.499Z,2.40
2022-10-11T10:09:38.022Z,4.60
2022-10-11T10:14:41.508Z,2.50
2022-10-11T10:19:51.959Z,2.40
2022-10-11T10:24:57.888Z,4.00
2022-10-11T10:30:09.924Z,2.60
2022-10-11T10:35:24.660Z,5.60
2022-10-11T10:40:39.473Z,3.00
2022-10-11T10:46:20.580Z,6.00
2022-10-11T10:51:58.448Z,2.60
2022-10-11T10:57:05.666Z,2.20
2022-10-11T11:07:50.629Z,2.40
2022-10-11T11:13:14.730Z,2.50
2022-10-11T11:18:36.583Z,2.80
2022-10-11T11:23:48.492Z,2.50
2022-10-11T11:29:00.821Z,2.40
2022-10-11T11:34:19.185Z,2.50
2022-10-11T11:39:39.918Z,2.20
2022-10-11T11:44:51.021Z,1.90
2022-10-11T11:50:19.608Z,1.90
2022-10-11T11:55:42.281Z,1.90
2022-10-11T12:01:03.935Z,2.00
2022-10-11T12:06:24.105Z,2.00
2022-10-11T12:11:34.641Z,2.20
2022-10-11T12:17:09.059Z,2.10
2022-10-11T12:22:36.892Z,1.90
2022-10-11T12:27:46.406Z,2.00
2022-10-11T12:32:51.405Z,2.10
2022-10-11T12:38:14.648Z,2.20
2022-10-11T12:43:55.741Z,2.70
2022-10-11T12:49:04.274Z,2.00
2022-10-11T12:54:28.998Z,1.90
2022-10-11T12:59:39.168Z,1.90
2022-10-11T13:04:42.177Z,2.30
2022-10-11T13:09:48.984Z,2.20
2022-10-11T13:15:04.579Z,2.00
2022-10-11T13:20:17.880Z,2.10
2022-10-11T13:25:28.113Z,1.60
2022-10-11T13:30:34.529Z,2.20
2022-10-11T13:35:38.873Z,2.20
2022-10-11T13:40:42.273Z,2.20
2022-10-11T13:45:45.250Z,1.70
2022-10-11T13:51:08.626Z,1.90
2022-10-11T13:56:12.762Z,2.50
2022-10-11T14:01:21.186Z,3.00
2022-10-11T14:06:25.679Z,2.70
2022-10-11T14:11:35.099Z,2.10
2022-10-11T14:16:38.354Z,2.10
2022-10-11T14:21:47.254Z,2.30
2022-10-11T14:26:53.226Z,2.30
2022-10-11T14:32:03.917Z,2.20
2022-10-11T14:37:06.946Z,2.70
2022-10-11T14:42:12.483Z,3.20
2022-10-11T14:47:17.030Z,2.20
2022-10-11T14:52:19.831Z,1.80
2022-10-11T14:57:22.737Z,1.80
2022-10-11T15:02:25.538Z,2.20
2022-10-11T15:07:28.957Z,1.80
2022-10-11T15:12:32.061Z,1.80
2022-10-11T15:17:34.982Z,2.00
2022-10-11T15:22:37.769Z,2.10
2022-10-11T15:27:42.515Z,2.90
2022-10-11T15:32:46.043Z,2.20
2022-10-11T15:37:52.936Z,2.20
2022-10-11T15:42:56.046Z,1.90
2022-10-11T15:47:59.839Z,2.60
2022-10-11T15:53:08.199Z,2.00
2022-10-11T15:58:24.722Z,2.50
2022-10-11T16:03:30.086Z,2.30
2022-10-11T16:08:34.523Z,2.30
2022-10-11T16:13:37.734Z,2.30
2022-10-11T16:18:40.946Z,2.00
2022-10-11T16:23:43.877Z,2.40
2022-10-11T16:28:48.285Z,4.40
2022-10-11T16:33:53.142Z,5.10
2022-10-11T16:38:55.945Z,6.50
2022-10-11T16:43:58.786Z,5.70
2022-10-11T16:49:01.857Z,4.20
2022-10-11T16:54:04.882Z,5.00
2022-10-11T16:59:08.493Z,4.70
2022-10-11T17:04:11.693Z,3.90
2022-10-11T17:09:14.841Z,3.50
2022-10-11T17:14:18.320Z,11.00
2022-10-11T17:19:21.120Z,13.90
2022-10-11T17:24:24.640Z,14.60
2022-10-11T17:29:27.448Z,14.60
2022-10-11T17:34:30.238Z,14.10
2022-10-11T17:39:33.155Z,15.30
2022-10-11T17:44:36.563Z,15.40
2022-10-11T17:49:39.469Z,13.80
2022-10-11T17:54:42.270Z,13.50
2022-10-11T17:59:45.217Z,15.20
2022-10-11T18:04:48.183Z,19.40
2022-10-11T18:09:51.053Z,19.40
2022-10-11T18:14:53.988Z,19.80
2022-10-11T18:19:56.792Z,18.90
2022-10-11T18:24:59.693Z,20.80
2022-10-11T18:30:02.608Z,19.10
2022-10-11T18:35:06.411Z,14.20
2022-10-11T18:40:10.226Z,13.40
2022-10-11T18:45:13.051Z,11.20
2022-10-11T18:50:15.954Z,11.20
2022-10-11T18:55:19.709Z,15.00
2022-10-11T19:00:40.174Z,14.90
2022-10-11T19:05:43.920Z,11.00
2022-10-11T19:10:46.720Z,9.00
2022-10-11T19:15:49.481Z,7.40
2022-10-11T19:20:53.118Z,6.70
2022-10-11T19:25:58.709Z,6.50
2022-10-11T19:31:07.804Z,6.10
2022-10-11T19:36:14.138Z,6.00
2022-10-11T19:41:19.403Z,4.90
2022-10-11T19:46:44.376Z,5.20
2022-10-11T19:51:45.692Z,5.40
2022-10-11T19:56:49.010Z,5.10
2022-10-11T20:01:53.329Z,5.30
2022-10-11T20:06:56.670Z,5.60
2022-10-11T20:11:59.562Z,5.30
2022-10-11T20:17:02.472Z,6.30
2022-10-11T20:22:05.207Z,6.20
2022-10-11T20:27:08.068Z,6.60
2022-10-11T20:32:11.223Z,6.10
2022-10-11T20:37:14.082Z,7.10
2022-10-11T20:42:16.885Z,6.70
2022-10-11T20:47:19.693Z,6.70
2022-10-11T20:52:22.692Z,6.40
2022-10-11T20:57:25.497Z,6.20
2022-10-11T21:02:28.807Z,6.00
2022-10-11T21:07:32.162Z,5.70
2022-10-11T21:12:35.729Z,5.80
2022-10-11T21:17:39.362Z,7.50
2022-10-11T21:22:42.168Z,7.20
2022-10-11T21:27:44.972Z,6.30
2022-10-11T21:32:47.975Z,6.00
2022-10-11T21:37:50.980Z,5.90
2022-10-11T21:42:53.800Z,5.40
2022-10-11T21:47:57.401Z,5.70
2022-10-11T21:53:00.927Z,5.50
2022-10-11T21:58:03.722Z,6.30
2022-10-11T22:03:06.526Z,6.20
2022-10-11T22:08:09.332Z,5.40
2022-10-11T22:13:12.335Z,5.60
2022-10-11T22:18:15.733Z,5.70
2022-10-11T22:23:19.474Z,5.20
2022-10-11T22:28:22.431Z,5.40
2022-10-11T22:33:25.491Z,5.00
2022-10-11T22:38:28.908Z,5.70
2022-10-11T22:43:32.426Z,5.20
2022-10-11T22:48:35.943Z,5.20
2022-10-11T22:53:39.055Z,6.10
2022-10-11T22:58:41.952Z,5.00
2022-10-11T23:03:49.441Z,5.80
2022-10-11T23:08:52.474Z,5.60
2022-10-11T23:13:55.274Z,5.50
2022-10-11T23:18:58.175Z,5.20
2022-10-11T23:24:01.186Z,5.20
2022-10-11T23:29:04.030Z,5.30
2022-10-11T23:34:06.787Z,5.30
2022-10-11T23:39:11.151Z,4.80
2022-10-11T23:44:14.130Z,5.30
2022-10-11T23:49:16.936Z,4.90
2022-10-11T23:54:19.735Z,5.10
2022-10-11T23:59:22.537Z,5.00
